sensor_id;sensor_type;location;lat;lon;timestamp;temperature;humidity
4910;DHT22;2470;49.868;8.660;2023-08-21T00:00:44;25.80;99.90
4910;DHT22;2470;49.868;8.660;2023-08-21T00:03:10;25.80;99.90
4910;DHT22;2470;49.868;8.660;2023-08-21T00:05:35;25.80;99.90
4910;DHT22;2470;49.868;8.660;2023-08-21T00:08:01;25.80;99.90
4910;DHT22;2470;49.868;8.660;2023-08-21T00:10:26;25.80;99.90
4910;DHT22;2470;49.868;8.660;2023-08-21T00:12:52;25.80;99.90
4910;DHT22;2470;49.868;8.660;2023-08-21T00:15:18;25.80;99.90
4910;DHT22;2470;49.868;8.660;2023-08-21T00:17:43;25.80;99.90
4910;DHT22;2470;49.868;8.660;2023-08-21T00:20:09;25.70;99.90
4910;DHT22;2470;49.868;8.660;2023-08-21T00:22:36;25.70;99.90
4910;DHT22;2470;49.868;8.660;2023-08-21T00:25:02;25.70;99.90
4910;DHT22;2470;49.868;8.660;2023-08-21T00:27:28;25.60;99.90
4910;DHT22;2470;49.868;8.660;2023-08-21T00:29:53;25.60;99.90
4910;DHT22;2470;49.868;8.660;2023-08-21T00:32:18;25.60;99.90
4910;DHT22;2470;49.868;8.660;2023-08-21T00:34:44;25.60;99.90
4910;DHT22;2470;49.868;8.660;2023-08-21T00:37:09;25.60;99.90
4910;DHT22;2470;49.868;8.660;2023-08-21T00:39:36;25.50;99.90
4910;DHT22;2470;49.868;8.660;2023-08-21T00:42:01;25.50;99.90
4910;DHT22;2470;49.868;8.660;2023-08-21T00:44:27;25.50;99.90
4910;DHT22;2470;49.868;8.660;2023-08-21T00:46:53;25.50;99.90
4910;DHT22;2470;49.868;8.660;2023-08-21T00:49:18;25.50;99.90
4910;DHT22;2470;49.868;8.660;2023-08-21T00:51:44;25.50;99.90
4910;DHT22;2470;49.868;8.660;2023-08-21T00:54:10;25.50;99.90
4910;DHT22;2470;49.868;8.660;2023-08-21T00:56:36;25.50;99.90
4910;DHT22;2470;49.868;8.660;2023-08-21T00:59:01;25.40;99.90
4910;DHT22;2470;49.868;8.660;2023-08-21T01:01:28;25.40;99.90
4910;DHT22;2470;49.868;8.660;2023-08-21T01:03:54;25.40;99.90
4910;DHT22;2470;49.868;8.660;2023-08-21T01:06:20;25.40;99.90
4910;DHT22;2470;49.868;8.660;2023-08-21T01:09:02;25.30;99.90
4910;DHT22;2470;49.868;8.660;2023-08-21T01:11:40;25.30;99.90
4910;DHT22;2470;49.868;8.660;2023-08-21T01:14:28;25.30;99.90
4910;DHT22;2470;49.868;8.660;2023-08-21T01:16:59;25.30;99.90
4910;DHT22;2470;49.868;8.660;2023-08-21T01:19:42;25.30;99.90
4910;DHT22;2470;49.868;8.660;2023-08-21T01:22:08;25.30;99.90
4910;DHT22;2470;49.868;8.660;2023-08-21T01:24:34;25.20;99.90
4910;DHT22;2470;49.868;8.660;2023-08-21T01:27:00;25.20;99.90
4910;DHT22;2470;49.868;8.660;2023-08-21T01:29:26;25.20;99.90
4910;DHT22;2470;49.868;8.660;2023-08-21T01:34:42;25.10;99.90
4910;DHT22;2470;49.868;8.660;2023-08-21T01:37:08;25.10;99.90
4910;DHT22;2470;49.868;8.660;2023-08-21T01:39:34;25.10;99.90
4910;DHT22;2470;49.868;8.660;2023-08-21T01:41:59;25.00;99.90
4910;DHT22;2470;49.868;8.660;2023-08-21T01:44:25;25.00;99.90
4910;DHT22;2470;49.868;8.660;2023-08-21T01:46:52;25.00;99.90
4910;DHT22;2470;49.868;8.660;2023-08-21T01:49:18;25.00;99.90
4910;DHT22;2470;49.868;8.660;2023-08-21T01:51:44;25.00;99.90
4910;DHT22;2470;49.868;8.660;2023-08-21T01:54:10;25.00;99.90
4910;DHT22;2470;49.868;8.660;2023-08-21T01:56:35;25.00;99.90
4910;DHT22;2470;49.868;8.660;2023-08-21T01:59:02;24.90;99.90
4910;DHT22;2470;49.868;8.660;2023-08-21T02:01:27;24.90;99.90
4910;DHT22;2470;49.868;8.660;2023-08-21T02:03:53;24.80;99.90
4910;DHT22;2470;49.868;8.660;2023-08-21T02:06:18;24.80;99.90
4910;DHT22;2470;49.868;8.660;2023-08-21T02:08:44;24.80;99.90
4910;DHT22;2470;49.868;8.660;2023-08-21T02:11:09;24.80;99.90
4910;DHT22;2470;49.868;8.660;2023-08-21T02:13:35;24.80;99.90
4910;DHT22;2470;49.868;8.660;2023-08-21T02:16:01;24.70;99.90
4910;DHT22;2470;49.868;8.660;2023-08-21T02:18:26;24.70;99.90
4910;DHT22;2470;49.868;8.660;2023-08-21T02:20:52;24.70;99.90
4910;DHT22;2470;49.868;8.660;2023-08-21T02:23:17;24.70;99.90
4910;DHT22;2470;49.868;8.660;2023-08-21T02:25:43;24.70;99.90
4910;DHT22;2470;49.868;8.660;2023-08-21T02:28:08;24.70;99.90
4910;DHT22;2470;49.868;8.660;2023-08-21T02:30:34;24.60;99.90
4910;DHT22;2470;49.868;8.660;2023-08-21T02:32:59;24.60;99.90
4910;DHT22;2470;49.868;8.660;2023-08-21T02:35:25;24.60;99.90
4910;DHT22;2470;49.868;8.660;2023-08-21T02:37:50;24.60;99.90
4910;DHT22;2470;49.868;8.660;2023-08-21T02:40:16;24.60;99.90
4910;DHT22;2470;49.868;8.660;2023-08-21T02:42:41;24.60;99.90
4910;DHT22;2470;49.868;8.660;2023-08-21T02:45:07;24.50;99.90
4910;DHT22;2470;49.868;8.660;2023-08-21T02:47:40;24.50;99.90
4910;DHT22;2470;49.868;8.660;2023-08-21T02:50:07;24.40;99.90
4910;DHT22;2470;49.868;8.660;2023-08-21T02:52:33;24.40;99.90
4910;DHT22;2470;49.868;8.660;2023-08-21T02:54:59;24.40;99.90
4910;DHT22;2470;49.868;8.660;2023-08-21T02:57:25;24.40;99.90
4910;DHT22;2470;49.868;8.660;2023-08-21T02:59:51;24.40;99.90
4910;DHT22;2470;49.868;8.660;2023-08-21T03:02:17;24.30;99.90
4910;DHT22;2470;49.868;8.660;2023-08-21T03:04:43;24.30;99.90
4910;DHT22;2470;49.868;8.660;2023-08-21T03:07:08;24.30;99.90
4910;DHT22;2470;49.868;8.660;2023-08-21T03:09:34;24.30;99.90
4910;DHT22;2470;49.868;8.660;2023-08-21T03:11:59;24.40;99.90
4910;DHT22;2470;49.868;8.660;2023-08-21T03:14:26;24.30;99.90
4910;DHT22;2470;49.868;8.660;2023-08-21T03:16:52;24.30;99.90
4910;DHT22;2470;49.868;8.660;2023-08-21T03:19:18;24.30;99.90
4910;DHT22;2470;49.868;8.660;2023-08-21T03:21:43;24.30;99.90
4910;DHT22;2470;49.868;8.660;2023-08-21T03:24:09;24.30;99.90
4910;DHT22;2470;49.868;8.660;2023-08-21T03:26:35;24.30;99.90
4910;DHT22;2470;49.868;8.660;2023-08-21T03:29:00;24.30;99.90
4910;DHT22;2470;49.868;8.660;2023-08-21T03:31:26;24.30;99.90
4910;DHT22;2470;49.868;8.660;2023-08-21T03:33:51;24.20;99.90
4910;DHT22;2470;49.868;8.660;2023-08-21T03:36:17;24.20;99.90
4910;DHT22;2470;49.868;8.660;2023-08-21T03:38:43;24.20;99.90
4910;DHT22;2470;49.868;8.660;2023-08-21T03:41:08;24.20;99.90
4910;DHT22;2470;49.868;8.660;2023-08-21T03:43:34;24.20;99.90
4910;DHT22;2470;49.868;8.660;2023-08-21T03:45:59;24.20;99.90
4910;DHT22;2470;49.868;8.660;2023-08-21T03:48:25;24.10;99.90
4910;DHT22;2470;49.868;8.660;2023-08-21T03:50:50;24.20;99.90
4910;DHT22;2470;49.868;8.660;2023-08-21T03:53:16;24.20;99.90
4910;DHT22;2470;49.868;8.660;2023-08-21T03:55:41;24.10;99.90
4910;DHT22;2470;49.868;8.660;2023-08-21T03:58:07;24.10;99.90
4910;DHT22;2470;49.868;8.660;2023-08-21T04:00:32;24.10;99.90
4910;DHT22;2470;49.868;8.660;2023-08-21T04:02:58;24.10;99.90
4910;DHT22;2470;49.868;8.660;2023-08-21T04:05:24;24.10;99.90
4910;DHT22;2470;49.868;8.660;2023-08-21T04:07:49;24.00;99.90
4910;DHT22;2470;49.868;8.660;2023-08-21T04:10:15;24.00;99.90
4910;DHT22;2470;49.868;8.660;2023-08-21T04:12:42;24.00;99.90
4910;DHT22;2470;49.868;8.660;2023-08-21T04:15:08;24.00;99.90
4910;DHT22;2470;49.868;8.660;2023-08-21T04:17:34;24.00;99.90
4910;DHT22;2470;49.868;8.660;2023-08-21T04:19:59;23.90;99.90
4910;DHT22;2470;49.868;8.660;2023-08-21T04:22:25;23.90;99.90
4910;DHT22;2470;49.868;8.660;2023-08-21T04:24:50;23.90;99.90
4910;DHT22;2470;49.868;8.660;2023-08-21T04:27:16;23.90;99.90
4910;DHT22;2470;49.868;8.660;2023-08-21T04:29:41;23.90;99.90
4910;DHT22;2470;49.868;8.660;2023-08-21T04:32:07;23.90;99.90
4910;DHT22;2470;49.868;8.660;2023-08-21T04:34:33;23.90;99.90
4910;DHT22;2470;49.868;8.660;2023-08-21T04:36:58;23.90;99.90
4910;DHT22;2470;49.868;8.660;2023-08-21T04:39:24;23.90;99.90
4910;DHT22;2470;49.868;8.660;2023-08-21T04:41:49;23.90;99.90
4910;DHT22;2470;49.868;8.660;2023-08-21T04:44:15;23.80;99.90
4910;DHT22;2470;49.868;8.660;2023-08-21T04:46:40;23.80;99.90
4910;DHT22;2470;49.868;8.660;2023-08-21T04:49:06;23.90;99.90
4910;DHT22;2470;49.868;8.660;2023-08-21T04:51:31;23.90;99.90
4910;DHT22;2470;49.868;8.660;2023-08-21T04:53:57;23.90;99.90
4910;DHT22;2470;49.868;8.660;2023-08-21T04:56:24;23.90;99.90
4910;DHT22;2470;49.868;8.660;2023-08-21T04:58:50;23.90;99.90
4910;DHT22;2470;49.868;8.660;2023-08-21T05:01:15;23.90;99.90
4910;DHT22;2470;49.868;8.660;2023-08-21T05:03:41;23.90;99.90
4910;DHT22;2470;49.868;8.660;2023-08-21T05:06:07;23.90;99.90
4910;DHT22;2470;49.868;8.660;2023-08-21T05:08:33;23.90;99.90
4910;DHT22;2470;49.868;8.660;2023-08-21T05:10:59;23.90;99.90
4910;DHT22;2470;49.868;8.660;2023-08-21T05:13:26;24.00;99.90
4910;DHT22;2470;49.868;8.660;2023-08-21T05:15:55;24.00;99.90
4910;DHT22;2470;49.868;8.660;2023-08-21T05:18:21;24.00;99.90
4910;DHT22;2470;49.868;8.660;2023-08-21T05:20:48;24.00;99.90
4910;DHT22;2470;49.868;8.660;2023-08-21T05:23:14;24.10;99.90
4910;DHT22;2470;49.868;8.660;2023-08-21T05:25:39;24.10;99.90
4910;DHT22;2470;49.868;8.660;2023-08-21T05:28:06;24.10;99.90
4910;DHT22;2470;49.868;8.660;2023-08-21T05:30:31;24.10;99.90
4910;DHT22;2470;49.868;8.660;2023-08-21T05:32:57;24.20;99.90
4910;DHT22;2470;49.868;8.660;2023-08-21T05:35:22;24.20;99.90
4910;DHT22;2470;49.868;8.660;2023-08-21T05:37:48;24.20;99.90
4910;DHT22;2470;49.868;8.660;2023-08-21T05:40:14;24.30;99.90
4910;DHT22;2470;49.868;8.660;2023-08-21T05:42:39;24.30;99.90
4910;DHT22;2470;49.868;8.660;2023-08-21T05:45:05;24.40;99.90
4910;DHT22;2470;49.868;8.660;2023-08-21T05:47:31;24.40;99.90
4910;DHT22;2470;49.868;8.660;2023-08-21T05:49:57;24.50;99.90
4910;DHT22;2470;49.868;8.660;2023-08-21T05:52:22;24.50;99.90
4910;DHT22;2470;49.868;8.660;2023-08-21T05:54:48;24.50;99.90
4910;DHT22;2470;49.868;8.660;2023-08-21T05:57:14;24.60;99.90
4910;DHT22;2470;49.868;8.660;2023-08-21T05:59:46;24.60;99.90
4910;DHT22;2470;49.868;8.660;2023-08-21T06:02:13;24.70;99.90
4910;DHT22;2470;49.868;8.660;2023-08-21T06:04:40;24.70;99.90
4910;DHT22;2470;49.868;8.660;2023-08-21T06:07:06;24.70;99.90
4910;DHT22;2470;49.868;8.660;2023-08-21T06:09:31;24.80;99.90
4910;DHT22;2470;49.868;8.660;2023-08-21T06:11:59;24.80;99.90
4910;DHT22;2470;49.868;8.660;2023-08-21T06:14:26;24.80;99.90
4910;DHT22;2470;49.868;8.660;2023-08-21T06:17:01;24.90;99.90
4910;DHT22;2470;49.868;8.660;2023-08-21T06:19:27;24.90;99.90
4910;DHT22;2470;49.868;8.660;2023-08-21T06:21:54;24.90;99.90
4910;DHT22;2470;49.868;8.660;2023-08-21T06:24:20;25.00;99.90
4910;DHT22;2470;49.868;8.660;2023-08-21T06:26:45;25.00;99.90
4910;DHT22;2470;49.868;8.660;2023-08-21T06:29:11;25.00;99.90
4910;DHT22;2470;49.868;8.660;2023-08-21T06:31:36;25.00;99.90
4910;DHT22;2470;49.868;8.660;2023-08-21T06:34:02;25.10;99.90
4910;DHT22;2470;49.868;8.660;2023-08-21T06:36:27;25.10;99.90
4910;DHT22;2470;49.868;8.660;2023-08-21T06:38:53;25.10;99.90
4910;DHT22;2470;49.868;8.660;2023-08-21T06:41:18;25.10;99.90
4910;DHT22;2470;49.868;8.660;2023-08-21T06:43:45;25.20;99.90
4910;DHT22;2470;49.868;8.660;2023-08-21T06:46:11;25.20;99.90
4910;DHT22;2470;49.868;8.660;2023-08-21T06:48:39;25.30;99.90
4910;DHT22;2470;49.868;8.660;2023-08-21T06:51:08;25.30;99.90
4910;DHT22;2470;49.868;8.660;2023-08-21T06:53:34;25.30;99.90
4910;DHT22;2470;49.868;8.660;2023-08-21T06:56:00;25.30;99.90
4910;DHT22;2470;49.868;8.660;2023-08-21T06:58:25;25.40;99.90
4910;DHT22;2470;49.868;8.660;2023-08-21T07:00:53;25.50;99.90
4910;DHT22;2470;49.868;8.660;2023-08-21T07:03:19;25.50;99.90
4910;DHT22;2470;49.868;8.660;2023-08-21T07:05:55;25.50;99.90
4910;DHT22;2470;49.868;8.660;2023-08-21T07:08:24;25.60;99.90
4910;DHT22;2470;49.868;8.660;2023-08-21T07:10:50;25.70;99.90
4910;DHT22;2470;49.868;8.660;2023-08-21T07:13:16;25.70;99.90
4910;DHT22;2470;49.868;8.660;2023-08-21T07:15:42;25.70;99.90
4910;DHT22;2470;49.868;8.660;2023-08-21T07:18:07;25.70;99.90
4910;DHT22;2470;49.868;8.660;2023-08-21T07:20:33;25.70;99.90
4910;DHT22;2470;49.868;8.660;2023-08-21T07:22:59;25.80;99.90
4910;DHT22;2470;49.868;8.660;2023-08-21T07:25:25;25.80;99.90
4910;DHT22;2470;49.868;8.660;2023-08-21T07:27:54;25.80;99.90
4910;DHT22;2470;49.868;8.660;2023-08-21T07:30:20;25.90;99.90
4910;DHT22;2470;49.868;8.660;2023-08-21T07:32:46;25.90;99.90
4910;DHT22;2470;49.868;8.660;2023-08-21T07:35:12;26.00;99.90
4910;DHT22;2470;49.868;8.660;2023-08-21T07:37:38;26.00;99.90
4910;DHT22;2470;49.868;8.660;2023-08-21T07:40:05;26.20;99.90
4910;DHT22;2470;49.868;8.660;2023-08-21T07:42:30;26.20;99.90
4910;DHT22;2470;49.868;8.660;2023-08-21T07:44:56;26.30;99.90
4910;DHT22;2470;49.868;8.660;2023-08-21T07:47:21;26.30;99.90
4910;DHT22;2470;49.868;8.660;2023-08-21T07:49:47;26.30;99.90
4910;DHT22;2470;49.868;8.660;2023-08-21T07:52:12;26.40;99.90
4910;DHT22;2470;49.868;8.660;2023-08-21T07:54:38;26.40;99.90
4910;DHT22;2470;49.868;8.660;2023-08-21T07:57:04;26.50;99.90
4910;DHT22;2470;49.868;8.660;2023-08-21T07:59:29;26.50;99.90
4910;DHT22;2470;49.868;8.660;2023-08-21T08:01:55;26.60;99.90
4910;DHT22;2470;49.868;8.660;2023-08-21T08:04:21;26.60;99.90
4910;DHT22;2470;49.868;8.660;2023-08-21T08:06:46;26.70;99.90
4910;DHT22;2470;49.868;8.660;2023-08-21T08:09:12;26.70;99.90
4910;DHT22;2470;49.868;8.660;2023-08-21T08:11:38;26.80;99.90
4910;DHT22;2470;49.868;8.660;2023-08-21T08:14:03;26.90;99.90
4910;DHT22;2470;49.868;8.660;2023-08-21T08:16:29;26.90;99.90
4910;DHT22;2470;49.868;8.660;2023-08-21T08:18:54;27.00;99.90
4910;DHT22;2470;49.868;8.660;2023-08-21T08:21:20;27.00;99.90
4910;DHT22;2470;49.868;8.660;2023-08-21T08:23:45;27.00;99.90
4910;DHT22;2470;49.868;8.660;2023-08-21T08:26:11;27.00;99.90
4910;DHT22;2470;49.868;8.660;2023-08-21T08:28:36;27.10;99.90
4910;DHT22;2470;49.868;8.660;2023-08-21T08:31:02;27.10;99.90
4910;DHT22;2470;49.868;8.660;2023-08-21T08:33:28;27.20;99.90
4910;DHT22;2470;49.868;8.660;2023-08-21T08:35:53;27.20;99.90
4910;DHT22;2470;49.868;8.660;2023-08-21T08:38:19;27.30;99.90
4910;DHT22;2470;49.868;8.660;2023-08-21T08:40:46;27.40;99.90
4910;DHT22;2470;49.868;8.660;2023-08-21T08:43:14;27.40;99.90
4910;DHT22;2470;49.868;8.660;2023-08-21T08:45:41;27.50;99.90
4910;DHT22;2470;49.868;8.660;2023-08-21T08:48:07;27.50;99.90
4910;DHT22;2470;49.868;8.660;2023-08-21T08:50:33;27.50;99.90
4910;DHT22;2470;49.868;8.660;2023-08-21T08:53:00;27.50;99.90
4910;DHT22;2470;49.868;8.660;2023-08-21T08:55:25;27.60;99.90
4910;DHT22;2470;49.868;8.660;2023-08-21T08:57:52;27.70;99.90
4910;DHT22;2470;49.868;8.660;2023-08-21T09:00:19;27.70;99.90
4910;DHT22;2470;49.868;8.660;2023-08-21T09:02:45;27.80;99.90
4910;DHT22;2470;49.868;8.660;2023-08-21T09:05:11;27.80;99.90
4910;DHT22;2470;49.868;8.660;2023-08-21T09:07:38;27.80;99.90
4910;DHT22;2470;49.868;8.660;2023-08-21T09:10:04;27.80;99.90
4910;DHT22;2470;49.868;8.660;2023-08-21T09:12:31;27.80;99.90
4910;DHT22;2470;49.868;8.660;2023-08-21T09:14:58;27.90;99.90
4910;DHT22;2470;49.868;8.660;2023-08-21T09:17:25;27.90;99.90
4910;DHT22;2470;49.868;8.660;2023-08-21T09:19:51;28.10;99.90
4910;DHT22;2470;49.868;8.660;2023-08-21T09:22:18;28.10;99.90
4910;DHT22;2470;49.868;8.660;2023-08-21T09:25:19;28.10;99.90
4910;DHT22;2470;49.868;8.660;2023-08-21T09:27:44;28.20;99.90
4910;DHT22;2470;49.868;8.660;2023-08-21T09:30:11;28.30;99.90
4910;DHT22;2470;49.868;8.660;2023-08-21T09:32:53;28.30;99.90
4910;DHT22;2470;49.868;8.660;2023-08-21T09:35:20;28.40;99.90
4910;DHT22;2470;49.868;8.660;2023-08-21T09:37:49;28.40;99.90
4910;DHT22;2470;49.868;8.660;2023-08-21T09:40:18;28.50;99.90
4910;DHT22;2470;49.868;8.660;2023-08-21T09:42:44;28.40;99.90
4910;DHT22;2470;49.868;8.660;2023-08-21T09:45:09;28.50;99.90
4910;DHT22;2470;49.868;8.660;2023-08-21T09:47:36;28.50;99.90
4910;DHT22;2470;49.868;8.660;2023-08-21T09:50:03;28.60;99.90
4910;DHT22;2470;49.868;8.660;2023-08-21T09:52:30;28.60;99.90
4910;DHT22;2470;49.868;8.660;2023-08-21T09:54:56;28.70;99.90
4910;DHT22;2470;49.868;8.660;2023-08-21T09:57:23;28.80;99.90
4910;DHT22;2470;49.868;8.660;2023-08-21T09:59:53;28.80;99.90
4910;DHT22;2470;49.868;8.660;2023-08-21T10:02:21;28.90;99.90
4910;DHT22;2470;49.868;8.660;2023-08-21T10:04:48;29.00;99.90
4910;DHT22;2470;49.868;8.660;2023-08-21T10:07:16;29.10;99.90
4910;DHT22;2470;49.868;8.660;2023-08-21T10:09:45;29.10;99.90
4910;DHT22;2470;49.868;8.660;2023-08-21T10:12:14;29.20;99.90
4910;DHT22;2470;49.868;8.660;2023-08-21T10:14:40;29.20;99.90
4910;DHT22;2470;49.868;8.660;2023-08-21T10:17:06;29.10;99.90
4910;DHT22;2470;49.868;8.660;2023-08-21T10:19:34;29.20;99.90
4910;DHT22;2470;49.868;8.660;2023-08-21T10:22:00;29.10;99.90
4910;DHT22;2470;49.868;8.660;2023-08-21T10:24:34;29.10;99.90
4910;DHT22;2470;49.868;8.660;2023-08-21T10:27:01;29.20;99.90
4910;DHT22;2470;49.868;8.660;2023-08-21T10:29:26;29.30;99.90
4910;DHT22;2470;49.868;8.660;2023-08-21T10:32:02;29.40;99.90
4910;DHT22;2470;49.868;8.660;2023-08-21T10:34:51;29.40;99.90
4910;DHT22;2470;49.868;8.660;2023-08-21T10:37:18;29.50;99.90
4910;DHT22;2470;49.868;8.660;2023-08-21T10:39:55;29.60;99.90
4910;DHT22;2470;49.868;8.660;2023-08-21T10:42:40;29.70;99.90
4910;DHT22;2470;49.868;8.660;2023-08-21T10:45:10;29.90;99.90
4910;DHT22;2470;49.868;8.660;2023-08-21T10:47:36;29.90;99.90
4910;DHT22;2470;49.868;8.660;2023-08-21T10:50:04;29.90;99.90
4910;DHT22;2470;49.868;8.660;2023-08-21T10:52:38;30.00;99.90
4910;DHT22;2470;49.868;8.660;2023-08-21T10:55:07;30.10;99.90
4910;DHT22;2470;49.868;8.660;2023-08-21T10:57:34;30.10;99.90
4910;DHT22;2470;49.868;8.660;2023-08-21T11:00:04;30.20;99.90
4910;DHT22;2470;49.868;8.660;2023-08-21T11:02:31;30.30;99.90
4910;DHT22;2470;49.868;8.660;2023-08-21T11:04:58;30.50;99.90
4910;DHT22;2470;49.868;8.660;2023-08-21T11:07:25;30.40;99.90
4910;DHT22;2470;49.868;8.660;2023-08-21T11:09:51;30.40;99.90
4910;DHT22;2470;49.868;8.660;2023-08-21T11:12:19;30.50;99.20
4910;DHT22;2470;49.868;8.660;2023-08-21T11:14:45;30.50;98.10
4910;DHT22;2470;49.868;8.660;2023-08-21T11:17:11;30.60;97.60
4910;DHT22;2470;49.868;8.660;2023-08-21T11:19:38;30.60;97.50
4910;DHT22;2470;49.868;8.660;2023-08-21T11:22:05;30.60;97.30
4910;DHT22;2470;49.868;8.660;2023-08-21T11:29:32;30.70;96.70
4910;DHT22;2470;49.868;8.660;2023-08-21T11:32:02;30.80;96.50
4910;DHT22;2470;49.868;8.660;2023-08-21T11:34:28;31.00;97.00
4910;DHT22;2470;49.868;8.660;2023-08-21T11:36:54;31.10;95.30
4910;DHT22;2470;49.868;8.660;2023-08-21T11:39:20;31.20;94.60
4910;DHT22;2470;49.868;8.660;2023-08-21T11:41:57;31.20;94.30
4910;DHT22;2470;49.868;8.660;2023-08-21T11:44:23;31.20;94.00
4910;DHT22;2470;49.868;8.660;2023-08-21T11:46:52;31.30;93.20
4910;DHT22;2470;49.868;8.660;2023-08-21T11:49:20;31.30;93.50
4910;DHT22;2470;49.868;8.660;2023-08-21T11:51:47;31.40;93.30
4910;DHT22;2470;49.868;8.660;2023-08-21T11:54:13;31.50;92.30
4910;DHT22;2470;49.868;8.660;2023-08-21T11:56:39;31.40;92.90
4910;DHT22;2470;49.868;8.660;2023-08-21T11:59:06;31.50;92.20
4910;DHT22;2470;49.868;8.660;2023-08-21T12:01:35;31.50;92.10
4910;DHT22;2470;49.868;8.660;2023-08-21T12:04:01;31.60;92.50
4910;DHT22;2470;49.868;8.660;2023-08-21T12:06:26;31.60;93.00
4910;DHT22;2470;49.868;8.660;2023-08-21T12:08:54;31.70;92.00
4910;DHT22;2470;49.868;8.660;2023-08-21T12:11:20;31.70;91.40
4910;DHT22;2470;49.868;8.660;2023-08-21T12:13:46;31.90;90.00
4910;DHT22;2470;49.868;8.660;2023-08-21T12:16:11;32.10;85.40
4910;DHT22;2470;49.868;8.660;2023-08-21T12:18:37;32.20;84.40
4910;DHT22;2470;49.868;8.660;2023-08-21T12:21:02;32.40;84.00
4910;DHT22;2470;49.868;8.660;2023-08-21T12:23:28;32.50;83.30
4910;DHT22;2470;49.868;8.660;2023-08-21T12:25:54;32.50;85.30
4910;DHT22;2470;49.868;8.660;2023-08-21T12:28:19;32.50;83.80
4910;DHT22;2470;49.868;8.660;2023-08-21T12:30:45;32.60;81.00
4910;DHT22;2470;49.868;8.660;2023-08-21T12:33:12;32.60;80.40
4910;DHT22;2470;49.868;8.660;2023-08-21T12:35:37;33.00;79.70
4910;DHT22;2470;49.868;8.660;2023-08-21T12:38:10;33.60;80.10
4910;DHT22;2470;49.868;8.660;2023-08-21T12:40:38;34.30;77.40
4910;DHT22;2470;49.868;8.660;2023-08-21T12:43:03;35.40;73.90
4910;DHT22;2470;49.868;8.660;2023-08-21T12:45:30;36.90;70.10
4910;DHT22;2470;49.868;8.660;2023-08-21T12:47:55;38.10;65.30
4910;DHT22;2470;49.868;8.660;2023-08-21T12:50:21;39.50;59.70
4910;DHT22;2470;49.868;8.660;2023-08-21T12:52:46;41.10;55.50
4910;DHT22;2470;49.868;8.660;2023-08-21T12:55:12;42.10;54.00
4910;DHT22;2470;49.868;8.660;2023-08-21T12:57:39;43.00;50.80
4910;DHT22;2470;49.868;8.660;2023-08-21T13:00:05;43.90;48.60
4910;DHT22;2470;49.868;8.660;2023-08-21T13:02:30;45.00;47.40
4910;DHT22;2470;49.868;8.660;2023-08-21T13:04:56;46.10;44.30
4910;DHT22;2470;49.868;8.660;2023-08-21T13:07:21;46.70;42.80
4910;DHT22;2470;49.868;8.660;2023-08-21T13:09:47;47.70;41.10
4910;DHT22;2470;49.868;8.660;2023-08-21T13:12:12;48.70;40.30
4910;DHT22;2470;49.868;8.660;2023-08-21T13:14:38;49.40;38.90
4910;DHT22;2470;49.868;8.660;2023-08-21T13:17:03;49.80;37.10
4910;DHT22;2470;49.868;8.660;2023-08-21T13:19:29;50.10;35.50
4910;DHT22;2470;49.868;8.660;2023-08-21T13:21:54;50.80;33.60
4910;DHT22;2470;49.868;8.660;2023-08-21T13:24:20;51.00;32.50
4910;DHT22;2470;49.868;8.660;2023-08-21T13:26:46;51.40;29.90
4910;DHT22;2470;49.868;8.660;2023-08-21T13:29:11;51.70;29.00
4910;DHT22;2470;49.868;8.660;2023-08-21T13:31:37;52.20;29.30
4910;DHT22;2470;49.868;8.660;2023-08-21T13:34:02;53.00;28.60
4910;DHT22;2470;49.868;8.660;2023-08-21T13:36:28;53.10;28.10
4910;DHT22;2470;49.868;8.660;2023-08-21T13:38:54;53.40;28.00
4910;DHT22;2470;49.868;8.660;2023-08-21T13:41:20;53.50;27.70
4910;DHT22;2470;49.868;8.660;2023-08-21T13:43:45;53.90;28.00
4910;DHT22;2470;49.868;8.660;2023-08-21T13:46:11;54.60;27.80
4910;DHT22;2470;49.868;8.660;2023-08-21T13:48:36;54.90;27.50
4910;DHT22;2470;49.868;8.660;2023-08-21T13:51:02;54.60;27.30
4910;DHT22;2470;49.868;8.660;2023-08-21T13:53:27;54.90;27.40
4910;DHT22;2470;49.868;8.660;2023-08-21T13:55:53;55.10;27.00
4910;DHT22;2470;49.868;8.660;2023-08-21T13:58:18;55.40;26.60
4910;DHT22;2470;49.868;8.660;2023-08-21T14:00:44;55.50;26.60
4910;DHT22;2470;49.868;8.660;2023-08-21T14:03:10;55.50;26.20
4910;DHT22;2470;49.868;8.660;2023-08-21T14:05:35;55.20;26.00
4910;DHT22;2470;49.868;8.660;2023-08-21T14:08:01;55.50;26.30
4910;DHT22;2470;49.868;8.660;2023-08-21T14:10:26;55.50;26.00
4910;DHT22;2470;49.868;8.660;2023-08-21T14:12:52;55.90;26.20
4910;DHT22;2470;49.868;8.660;2023-08-21T14:15:17;56.00;25.50
4910;DHT22;2470;49.868;8.660;2023-08-21T14:17:44;56.10;25.70
4910;DHT22;2470;49.868;8.660;2023-08-21T14:20:10;56.40;25.80
4910;DHT22;2470;49.868;8.660;2023-08-21T14:22:37;56.10;25.40
4910;DHT22;2470;49.868;8.660;2023-08-21T14:25:03;55.80;26.30
4910;DHT22;2470;49.868;8.660;2023-08-21T14:27:31;55.90;25.80
4910;DHT22;2470;49.868;8.660;2023-08-21T14:29:57;55.80;25.90
4910;DHT22;2470;49.868;8.660;2023-08-21T14:32:22;55.70;26.20
4910;DHT22;2470;49.868;8.660;2023-08-21T14:34:48;55.20;25.50
4910;DHT22;2470;49.868;8.660;2023-08-21T14:37:14;55.10;25.90
4910;DHT22;2470;49.868;8.660;2023-08-21T14:39:41;55.50;25.90
4910;DHT22;2470;49.868;8.660;2023-08-21T14:42:08;55.90;25.80
4910;DHT22;2470;49.868;8.660;2023-08-21T14:44:34;55.60;25.60
4910;DHT22;2470;49.868;8.660;2023-08-21T14:46:59;55.80;25.60
4910;DHT22;2470;49.868;8.660;2023-08-21T14:49:25;55.50;25.60
4910;DHT22;2470;49.868;8.660;2023-08-21T14:51:51;55.50;25.80
4910;DHT22;2470;49.868;8.660;2023-08-21T14:54:17;55.20;25.60
4910;DHT22;2470;49.868;8.660;2023-08-21T14:56:43;53.30;26.00
4910;DHT22;2470;49.868;8.660;2023-08-21T14:59:08;50.60;27.60
4910;DHT22;2470;49.868;8.660;2023-08-21T15:01:37;50.30;28.20
4910;DHT22;2470;49.868;8.660;2023-08-21T15:04:02;50.50;28.60
4910;DHT22;2470;49.868;8.660;2023-08-21T15:06:28;49.60;28.10
4910;DHT22;2470;49.868;8.660;2023-08-21T15:08:53;48.50;29.00
4910;DHT22;2470;49.868;8.660;2023-08-21T15:11:19;48.70;29.20
4910;DHT22;2470;49.868;8.660;2023-08-21T15:13:44;48.90;28.70
4910;DHT22;2470;49.868;8.660;2023-08-21T15:16:10;47.60;29.50
4910;DHT22;2470;49.868;8.660;2023-08-21T15:18:35;45.60;30.40
4910;DHT22;2470;49.868;8.660;2023-08-21T15:21:01;43.50;32.90
4910;DHT22;2470;49.868;8.660;2023-08-21T15:23:27;41.70;35.00
4910;DHT22;2470;49.868;8.660;2023-08-21T15:25:53;40.40;36.60
4910;DHT22;2470;49.868;8.660;2023-08-21T15:28:20;39.50;37.70
4910;DHT22;2470;49.868;8.660;2023-08-21T15:30:45;38.70;39.20
4910;DHT22;2470;49.868;8.660;2023-08-21T15:33:11;38.10;39.80
4910;DHT22;2470;49.868;8.660;2023-08-21T15:35:36;37.50;41.00
4910;DHT22;2470;49.868;8.660;2023-08-21T15:38:02;37.00;41.50
4910;DHT22;2470;49.868;8.660;2023-08-21T15:40:28;36.50;42.30
4910;DHT22;2470;49.868;8.660;2023-08-21T15:42:54;36.00;43.10
4910;DHT22;2470;49.868;8.660;2023-08-21T15:45:20;35.70;43.90
4910;DHT22;2470;49.868;8.660;2023-08-21T15:47:47;35.50;44.00
4910;DHT22;2470;49.868;8.660;2023-08-21T15:50:14;35.30;45.20
4910;DHT22;2470;49.868;8.660;2023-08-21T15:52:39;35.10;45.30
4910;DHT22;2470;49.868;8.660;2023-08-21T15:55:05;34.90;46.00
4910;DHT22;2470;49.868;8.660;2023-08-21T15:57:30;34.80;46.40
4910;DHT22;2470;49.868;8.660;2023-08-21T15:59:57;34.50;46.00
4910;DHT22;2470;49.868;8.660;2023-08-21T16:02:22;34.50;47.60
4910;DHT22;2470;49.868;8.660;2023-08-21T16:04:48;34.50;47.70